sensor_id;sensor_type;location;lat;lon;timestamp;pressure;altitude;pressure_sealevel;temperature;humidity
85683;BME280;76253;52.232;5.176;2024-02-21T00:01:46;102144.41;;;8.50;88.33
85683;BME280;76253;52.232;5.176;2024-02-21T00:04:11;102148.53;;;8.54;88.70
85683;BME280;76253;52.232;5.176;2024-02-21T00:06:37;102132.38;;;8.46;88.44
85683;BME280;76253;52.232;5.176;2024-02-21T00:09:03;102135.00;;;8.46;88.42
85683;BME280;76253;52.232;5.176;2024-02-21T00:11:28;102131.34;;;8.49;88.96
85683;BME280;76253;52.232;5.176;2024-02-21T00:13:54;102146.03;;;8.53;88.59
85683;BME280;76253;52.232;5.176;2024-02-21T00:16:19;102140.59;;;8.56;88.85
85683;BME280;76253;52.232;5.176;2024-02-21T00:18:44;102134.47;;;8.55;89.09
85683;BME280;76253;52.232;5.176;2024-02-21T00:21:10;102137.09;;;8.55;89.25
85683;BME280;76253;52.232;5.176;2024-02-21T00:23:40;102122.53;;;8.50;89.05
85683;BME280;76253;52.232;5.176;2024-02-21T00:26:05;102141.50;;;8.55;89.36
85683;BME280;76253;52.232;5.176;2024-02-21T00:28:31;102121.69;;;8.49;89.24
85683;BME280;76253;52.232;5.176;2024-02-21T00:30:56;102134.41;;;8.57;89.41
85683;BME280;76253;52.232;5.176;2024-02-21T00:33:21;102150.22;;;8.55;89.07
85683;BME280;76253;52.232;5.176;2024-02-21T00:35:47;102117.75;;;8.42;89.42
85683;BME280;76253;52.232;5.176;2024-02-21T00:38:12;102144.06;;;8.56;89.02
85683;BME280;76253;52.232;5.176;2024-02-21T00:40:38;102144.06;;;8.56;89.67
85683;BME280;76253;52.232;5.176;2024-02-21T00:43:03;102135.59;;;8.51;89.59
85683;BME280;76253;52.232;5.176;2024-02-21T00:45:30;102130.16;;;8.54;89.50
85683;BME280;76253;52.232;5.176;2024-02-21T00:47:55;102100.81;;;8.48;89.43
85683;BME280;76253;52.232;5.176;2024-02-21T00:50:20;102124.91;;;8.54;89.46
85683;BME280;76253;52.232;5.176;2024-02-21T00:52:46;102116.44;;;8.49;88.99
85683;BME280;76253;52.232;5.176;2024-02-21T00:55:11;102108.00;;;8.44;89.28
85683;BME280;76253;52.232;5.176;2024-02-21T00:57:36;102125.34;;;8.47;89.84
85683;BME280;76253;52.232;5.176;2024-02-21T01:00:02;102135.88;;;8.47;89.80
85683;BME280;76253;52.232;5.176;2024-02-21T01:02:28;102113.34;;;8.43;89.99
85683;BME280;76253;52.232;5.176;2024-02-21T01:04:53;102122.81;;;8.45;89.58
85683;BME280;76253;52.232;5.176;2024-02-21T01:07:20;102105.28;;;8.46;90.12
85683;BME280;76253;52.232;5.176;2024-02-21T01:09:45;102114.84;;;8.47;90.06
85683;BME280;76253;52.232;5.176;2024-02-21T01:12:10;102123.31;;;8.52;89.82
85683;BME280;76253;52.232;5.176;2024-02-21T01:14:35;102113.56;;;8.54;90.39
85683;BME280;76253;52.232;5.176;2024-02-21T01:17:01;102112.53;;;8.56;90.06
85683;BME280;76253;52.232;5.176;2024-02-21T01:19:26;102120.78;;;8.50;89.95
85683;BME280;76253;52.232;5.176;2024-02-21T01:21:52;102103.63;;;8.59;89.94
85683;BME280;76253;52.232;5.176;2024-02-21T01:24:17;102093.25;;;8.57;89.85
85683;BME280;76253;52.232;5.176;2024-02-21T01:26:42;102092.13;;;8.61;90.06
85683;BME280;76253;52.232;5.176;2024-02-21T01:29:07;102092.97;;;8.62;90.15
85683;BME280;76253;52.232;5.176;2024-02-21T01:31:33;102105.06;;;8.64;89.84
85683;BME280;76253;52.232;5.176;2024-02-21T01:33:58;102088.56;;;8.62;89.85
85683;BME280;76253;52.232;5.176;2024-02-21T01:36:23;102077.94;;;8.64;89.97
85683;BME280;76253;52.232;5.176;2024-02-21T01:38:48;102070.84;;;8.66;89.60
85683;BME280;76253;52.232;5.176;2024-02-21T01:41:14;102067.28;;;8.67;89.50
85683;BME280;76253;52.232;5.176;2024-02-21T01:43:39;102053.84;;;8.57;89.67
85683;BME280;76253;52.232;5.176;2024-02-21T01:46:04;102056.78;;;8.67;89.12
85683;BME280;76253;52.232;5.176;2024-02-21T01:48:30;102062.69;;;8.71;89.61
85683;BME280;76253;52.232;5.176;2024-02-21T01:50:56;102063.72;;;8.68;89.48
85683;BME280;76253;52.232;5.176;2024-02-21T01:53:33;102061.25;;;8.65;89.54
85683;BME280;76253;52.232;5.176;2024-02-21T01:56:00;102053.22;;;8.68;89.38
85683;BME280;76253;52.232;5.176;2024-02-21T01:58:28;102056.66;;;8.68;89.39
85683;BME280;76253;52.232;5.176;2024-02-21T02:00:56;102038.69;;;8.62;89.53
85683;BME280;76253;52.232;5.176;2024-02-21T02:03:21;102047.22;;;8.66;89.57
85683;BME280;76253;52.232;5.176;2024-02-21T02:05:49;102056.59;;;8.70;89.77
85683;BME280;76253;52.232;5.176;2024-02-21T02:08:15;102032.66;;;8.60;89.13
85683;BME280;76253;52.232;5.176;2024-02-21T02:10:41;102042.81;;;8.66;89.15
85683;BME280;76253;52.232;5.176;2024-02-21T02:13:07;102042.59;;;8.70;89.65
85683;BME280;76253;52.232;5.176;2024-02-21T02:15:39;102036.44;;;8.71;89.65
85683;BME280;76253;52.232;5.176;2024-02-21T02:18:06;102015.41;;;8.56;89.75
85683;BME280;76253;52.232;5.176;2024-02-21T02:20:31;102007.72;;;8.53;89.62
85683;BME280;76253;52.232;5.176;2024-02-21T02:22:57;102038.28;;;8.68;89.99
85683;BME280;76253;52.232;5.176;2024-02-21T02:25:24;102020.38;;;8.61;89.53
85683;BME280;76253;52.232;5.176;2024-02-21T02:27:49;102035.66;;;8.68;89.80
85683;BME280;76253;52.232;5.176;2024-02-21T02:30:15;102028.75;;;8.68;89.60
85683;BME280;76253;52.232;5.176;2024-02-21T02:32:44;102016.47;;;8.68;89.43
85683;BME280;76253;52.232;5.176;2024-02-21T02:35:10;102011.28;;;8.66;89.64
85683;BME280;76253;52.232;5.176;2024-02-21T02:37:35;102031.19;;;8.71;89.72
85683;BME280;76253;52.232;5.176;2024-02-21T02:40:00;102026.00;;;8.69;89.78
85683;BME280;76253;52.232;5.176;2024-02-21T02:42:26;102027.78;;;8.68;89.77
85683;BME280;76253;52.232;5.176;2024-02-21T02:44:51;102021.97;;;8.63;89.75
85683;BME280;76253;52.232;5.176;2024-02-21T02:47:16;102018.03;;;8.71;89.99
85683;BME280;76253;52.232;5.176;2024-02-21T02:49:41;102003.56;;;8.63;89.81
85683;BME280;76253;52.232;5.176;2024-02-21T02:52:07;102007.53;;;8.71;89.65
85683;BME280;76253;52.232;5.176;2024-02-21T02:54:32;101988.09;;;8.59;90.13
85683;BME280;76253;52.232;5.176;2024-02-21T02:56:58;101998.81;;;8.70;89.83
85683;BME280;76253;52.232;5.176;2024-02-21T02:59:23;101977.78;;;8.56;90.07
85683;BME280;76253;52.232;5.176;2024-02-21T03:01:49;101992.25;;;8.63;89.72
85683;BME280;76253;52.232;5.176;2024-02-21T03:04:14;101999.66;;;8.71;89.98
85683;BME280;76253;52.232;5.176;2024-02-21T03:06:39;101981.75;;;8.63;89.92
85683;BME280;76253;52.232;5.176;2024-02-21T03:09:05;101980.50;;;8.68;89.63
85683;BME280;76253;52.232;5.176;2024-02-21T03:11:33;101976.22;;;8.68;89.96
85683;BME280;76253;52.232;5.176;2024-02-21T03:13:59;101985.69;;;8.70;89.88
85683;BME280;76253;52.232;5.176;2024-02-21T03:16:24;101982.97;;;8.72;89.67
85683;BME280;76253;52.232;5.176;2024-02-21T03:18:50;101982.97;;;8.72;90.18
85683;BME280;76253;52.232;5.176;2024-02-21T03:21:15;101969.84;;;8.72;89.68
85683;BME280;76253;52.232;5.176;2024-02-21T03:23:40;101955.88;;;8.71;90.05
85683;BME280;76253;52.232;5.176;2024-02-21T03:26:05;101951.53;;;8.70;89.93
85683;BME280;76253;52.232;5.176;2024-02-21T03:28:31;101927.91;;;8.56;89.47
85683;BME280;76253;52.232;5.176;2024-02-21T03:30:56;101926.97;;;8.57;89.50
85683;BME280;76253;52.232;5.176;2024-02-21T03:33:21;101942.81;;;8.70;89.83
85683;BME280;76253;52.232;5.176;2024-02-21T03:35:48;101926.88;;;8.58;89.77
85683;BME280;76253;52.232;5.176;2024-02-21T03:38:13;101930.53;;;8.70;89.76
85683;BME280;76253;52.232;5.176;2024-02-21T03:40:39;101914.28;;;8.63;89.66
85683;BME280;76253;52.232;5.176;2024-02-21T03:43:04;101933.25;;;8.68;89.50
85683;BME280;76253;52.232;5.176;2024-02-21T03:45:29;101911.88;;;8.60;89.79
85683;BME280;76253;52.232;5.176;2024-02-21T03:47:54;101924.63;;;8.66;89.39
85683;BME280;76253;52.232;5.176;2024-02-21T03:50:20;101931.56;;;8.68;89.66
85683;BME280;76253;52.232;5.176;2024-02-21T03:52:46;101938.59;;;8.67;89.61
85683;BME280;76253;52.232;5.176;2024-02-21T03:55:11;101918.72;;;8.63;89.85
85683;BME280;76253;52.232;5.176;2024-02-21T03:57:36;101927.25;;;8.66;89.62
85683;BME280;76253;52.232;5.176;2024-02-21T04:00:02;101916.75;;;8.66;89.63
85683;BME280;76253;52.232;5.176;2024-02-21T04:02:28;101914.22;;;8.65;89.80
85683;BME280;76253;52.232;5.176;2024-02-21T04:04:54;101916.84;;;8.65;89.73
85683;BME280;76253;52.232;5.176;2024-02-21T04:07:19;101927.53;;;8.62;89.43
85683;BME280;76253;52.232;5.176;2024-02-21T04:09:44;101917.03;;;8.62;89.59
85683;BME280;76253;52.232;5.176;2024-02-21T04:12:10;101907.25;;;8.64;89.38
85683;BME280;76253;52.232;5.176;2024-02-21T04:14:35;101904.63;;;8.64;89.69
85683;BME280;76253;52.232;5.176;2024-02-21T04:17:01;101898.53;;;8.63;89.58
85683;BME280;76253;52.232;5.176;2024-02-21T04:19:26;101907.25;;;8.64;89.95
85683;BME280;76253;52.232;5.176;2024-02-21T04:21:51;101893.69;;;8.57;89.74
85683;BME280;76253;52.232;5.176;2024-02-21T04:24:17;101893.28;;;8.63;89.43
85683;BME280;76253;52.232;5.176;2024-02-21T04:26:42;101855.63;;;8.36;89.64
85683;BME280;76253;52.232;5.176;2024-02-21T04:29:09;101892.72;;;8.58;89.47
85683;BME280;76253;52.232;5.176;2024-02-21T04:31:34;101889.75;;;8.50;89.93
85683;BME280;76253;52.232;5.176;2024-02-21T04:33:59;101904.28;;;8.56;89.85
85683;BME280;76253;52.232;5.176;2024-02-21T04:36:24;101901.00;;;8.52;89.85
85683;BME280;76253;52.232;5.176;2024-02-21T04:38:50;101895.84;;;8.51;89.98
85683;BME280;76253;52.232;5.176;2024-02-21T04:41:15;101892.44;;;8.49;90.18
85683;BME280;76253;52.232;5.176;2024-02-21T04:43:41;101868.75;;;8.36;90.11
85683;BME280;76253;52.232;5.176;2024-02-21T04:46:06;101881.38;;;8.44;89.94
85683;BME280;76253;52.232;5.176;2024-02-21T04:48:31;101886.84;;;8.41;90.08
85683;BME280;76253;52.232;5.176;2024-02-21T04:50:57;101884.22;;;8.41;89.84
85683;BME280;76253;52.232;5.176;2024-02-21T04:53:22;101878.09;;;8.40;90.26
85683;BME280;76253;52.232;5.176;2024-02-21T04:55:47;101825.78;;;8.09;89.94
85683;BME280;76253;52.232;5.176;2024-02-21T04:58:13;101866.19;;;8.35;90.39
85683;BME280;76253;52.232;5.176;2024-02-21T05:00:38;101879.16;;;8.38;90.22
85683;BME280;76253;52.232;5.176;2024-02-21T05:03:03;101873.13;;;8.36;90.25
85683;BME280;76253;52.232;5.176;2024-02-21T05:05:29;101862.13;;;8.29;89.98
85683;BME280;76253;52.232;5.176;2024-02-21T05:07:54;101863.09;;;8.28;90.02
85683;BME280;76253;52.232;5.176;2024-02-21T05:10:20;101866.31;;;8.33;90.15
85683;BME280;76253;52.232;5.176;2024-02-21T05:12:45;101868.09;;;8.33;90.13
85683;BME280;76253;52.232;5.176;2024-02-21T05:15:11;101857.69;;;8.31;89.97
85683;BME280;76253;52.232;5.176;2024-02-21T05:17:36;101854.25;;;8.29;89.86
85683;BME280;76253;52.232;5.176;2024-02-21T05:20:02;101831.97;;;8.22;89.62
85683;BME280;76253;52.232;5.176;2024-02-21T05:22:28;101842.38;;;8.23;90.05
85683;BME280;76253;52.232;5.176;2024-02-21T05:24:54;101836.94;;;8.27;90.20
85683;BME280;76253;52.232;5.176;2024-02-21T05:27:19;101832.69;;;8.24;89.85
85683;BME280;76253;52.232;5.176;2024-02-21T05:29:44;101824.19;;;8.20;90.17
85683;BME280;76253;52.232;5.176;2024-02-21T05:32:11;101815.47;;;8.20;89.85
85683;BME280;76253;52.232;5.176;2024-02-21T05:34:37;101816.94;;;8.24;89.94
85683;BME280;76253;52.232;5.176;2024-02-21T05:37:03;101823.72;;;8.28;90.06
85683;BME280;76253;52.232;5.176;2024-02-21T05:39:28;101809.94;;;8.24;90.17
85683;BME280;76253;52.232;5.176;2024-02-21T05:41:54;101816.88;;;8.25;90.27
85683;BME280;76253;52.232;5.176;2024-02-21T05:44:19;101791.75;;;8.21;89.74
85683;BME280;76253;52.232;5.176;2024-02-21T05:46:47;101787.44;;;8.20;89.88
85683;BME280;76253;52.232;5.176;2024-02-21T05:49:12;101777.16;;;8.17;90.38
85683;BME280;76253;52.232;5.176;2024-02-21T05:51:37;101787.28;;;8.23;90.18
85683;BME280;76253;52.232;5.176;2024-02-21T05:54:03;101778.63;;;8.21;89.78
85683;BME280;76253;52.232;5.176;2024-02-21T05:56:28;101784.72;;;8.22;89.84
85683;BME280;76253;52.232;5.176;2024-02-21T05:58:53;101787.34;;;8.22;90.13
85683;BME280;76253;52.232;5.176;2024-02-21T06:01:19;101767.78;;;8.13;90.13
85683;BME280;76253;52.232;5.176;2024-02-21T06:03:46;101771.91;;;8.17;90.09
85683;BME280;76253;52.232;5.176;2024-02-21T06:06:12;101780.34;;;8.22;90.17
85683;BME280;76253;52.232;5.176;2024-02-21T06:08:40;101774.31;;;8.20;89.93
85683;BME280;76253;52.232;5.176;2024-02-21T06:11:05;101775.94;;;8.23;89.86
85683;BME280;76253;52.232;5.176;2024-02-21T06:13:30;101760.47;;;8.18;90.12
85683;BME280;76253;52.232;5.176;2024-02-21T06:15:56;101764.66;;;8.21;90.67
85683;BME280;76253;52.232;5.176;2024-02-21T06:18:21;101761.28;;;8.19;89.89
85683;BME280;76253;52.232;5.176;2024-02-21T06:20:47;101760.47;;;8.18;90.25
85683;BME280;76253;52.232;5.176;2024-02-21T06:23:15;101772.34;;;8.24;90.32
85683;BME280;76253;52.232;5.176;2024-02-21T06:25:42;101767.66;;;8.15;89.86
85683;BME280;76253;52.232;5.176;2024-02-21T06:28:07;101781.19;;;8.23;89.67
85683;BME280;76253;52.232;5.176;2024-02-21T06:30:32;101767.59;;;8.16;90.04
85683;BME280;76253;52.232;5.176;2024-02-21T06:32:58;101795.03;;;8.25;90.09
85683;BME280;76253;52.232;5.176;2024-02-21T06:35:24;101780.41;;;8.21;90.17
85683;BME280;76253;52.232;5.176;2024-02-21T06:37:50;101775.81;;;8.24;90.12
85683;BME280;76253;52.232;5.176;2024-02-21T06:40:22;101784.53;;;8.25;90.16
85683;BME280;76253;52.232;5.176;2024-02-21T06:42:48;101762.34;;;8.16;89.71
85683;BME280;76253;52.232;5.176;2024-02-21T06:45:14;101770.22;;;8.16;89.88
85683;BME280;76253;52.232;5.176;2024-02-21T06:47:39;101779.19;;;8.27;90.08
85683;BME280;76253;52.232;5.176;2024-02-21T06:50:05;101773.94;;;8.27;89.45
85683;BME280;76253;52.232;5.176;2024-02-21T06:52:30;101762.59;;;8.26;89.95
85683;BME280;76253;52.232;5.176;2024-02-21T06:54:56;101768.69;;;8.27;89.78
85683;BME280;76253;52.232;5.176;2024-02-21T06:57:21;101746.38;;;8.19;89.73
85683;BME280;76253;52.232;5.176;2024-02-21T06:59:46;101766.06;;;8.27;90.13
85683;BME280;76253;52.232;5.176;2024-02-21T07:02:12;101760.06;;;8.24;90.15
85683;BME280;76253;52.232;5.176;2024-02-21T07:04:38;101758.28;;;8.25;89.73
85683;BME280;76253;52.232;5.176;2024-02-21T07:07:03;101735.25;;;8.16;89.44
85683;BME280;76253;52.232;5.176;2024-02-21T07:09:29;101725.97;;;8.10;89.84
85683;BME280;76253;52.232;5.176;2024-02-21T07:11:57;101747.16;;;8.21;89.47
85683;BME280;76253;52.232;5.176;2024-02-21T07:14:23;101742.91;;;8.19;89.90
85683;BME280;76253;52.232;5.176;2024-02-21T07:16:48;101722.41;;;8.11;89.74
85683;BME280;76253;52.232;5.176;2024-02-21T07:19:13;101740.97;;;8.22;89.82
85683;BME280;76253;52.232;5.176;2024-02-21T07:21:39;101742.00;;;8.20;89.67
85683;BME280;76253;52.232;5.176;2024-02-21T07:24:06;101735.16;;;8.17;89.84
85683;BME280;76253;52.232;5.176;2024-02-21T07:26:32;101734.97;;;8.20;89.85
85683;BME280;76253;52.232;5.176;2024-02-21T07:28:57;101731.63;;;8.18;89.50
85683;BME280;76253;52.232;5.176;2024-02-21T07:31:22;101745.38;;;8.22;89.75
85683;BME280;76253;52.232;5.176;2024-02-21T07:33:47;101727.94;;;8.21;89.71
85683;BME280;76253;52.232;5.176;2024-02-21T07:36:15;101719.03;;;8.23;89.34
85683;BME280;76253;52.232;5.176;2024-02-21T07:38:40;101705.94;;;8.23;89.47
85683;BME280;76253;52.232;5.176;2024-02-21T07:41:06;101704.88;;;8.26;89.24
85683;BME280;76253;52.232;5.176;2024-02-21T07:43:31;101698.78;;;8.25;89.64
85683;BME280;76253;52.232;5.176;2024-02-21T07:45:56;101674.69;;;8.19;89.37
85683;BME280;76253;52.232;5.176;2024-02-21T07:48:22;101686.31;;;8.29;88.83
85683;BME280;76253;52.232;5.176;2024-02-21T07:50:51;101682.78;;;8.30;89.02
85683;BME280;76253;52.232;5.176;2024-02-21T07:53:17;101670.84;;;8.24;89.40
85683;BME280;76253;52.232;5.176;2024-02-21T07:55:42;101680.06;;;8.32;89.37
85683;BME280;76253;52.232;5.176;2024-02-21T07:58:07;101678.38;;;8.31;89.61
85683;BME280;76253;52.232;5.176;2024-02-21T08:00:33;101680.41;;;8.25;89.15
85683;BME280;76253;52.232;5.176;2024-02-21T08:02:58;101687.09;;;8.31;88.96
85683;BME280;76253;52.232;5.176;2024-02-21T08:05:24;101678.28;;;8.32;89.36
85683;BME280;76253;52.232;5.176;2024-02-21T08:07:49;101672.81;;;8.35;89.70
85683;BME280;76253;52.232;5.176;2024-02-21T08:10:14;101680.81;;;8.34;89.38
85683;BME280;76253;52.232;5.176;2024-02-21T08:12:40;101669.66;;;8.30;89.03
85683;BME280;76253;52.232;5.176;2024-02-21T08:15:05;101661.19;;;8.25;89.45
85683;BME280;76253;52.232;5.176;2024-02-21T08:17:33;101675.56;;;8.34;89.58
85683;BME280;76253;52.232;5.176;2024-02-21T08:19:59;101668.63;;;8.33;88.87
85683;BME280;76253;52.232;5.176;2024-02-21T08:22:24;101665.25;;;8.31;89.25
85683;BME280;76253;52.232;5.176;2024-02-21T08:24:50;101658.22;;;8.31;88.92
85683;BME280;76253;52.232;5.176;2024-02-21T08:27:15;101656.22;;;8.35;88.85
85683;BME280;76253;52.232;5.176;2024-02-21T08:29:40;101643.50;;;8.29;88.96
85683;BME280;76253;52.232;5.176;2024-02-21T08:32:06;101648.56;;;8.32;88.97
85683;BME280;76253;52.232;5.176;2024-02-21T08:34:31;101643.88;;;8.37;89.13
85683;BME280;76253;52.232;5.176;2024-02-21T08:36:59;101621.47;;;8.31;89.30
85683;BME280;76253;52.232;5.176;2024-02-21T08:39:25;101635.78;;;8.40;88.96
85683;BME280;76253;52.232;5.176;2024-02-21T08:41:53;101613.78;;;8.28;88.87
85683;BME280;76253;52.232;5.176;2024-02-21T08:44:19;101615.00;;;8.37;89.08
85683;BME280;76253;52.232;5.176;2024-02-21T08:46:44;101617.09;;;8.44;88.64
85683;BME280;76253;52.232;5.176;2024-02-21T08:49:10;101604.94;;;8.43;89.06
85683;BME280;76253;52.232;5.176;2024-02-21T08:51:35;101621.88;;;8.52;88.29
85683;BME280;76253;52.232;5.176;2024-02-21T08:54:00;101602.88;;;8.48;88.97
85683;BME280;76253;52.232;5.176;2024-02-21T08:56:27;101616.88;;;8.61;88.73
85683;BME280;76253;52.232;5.176;2024-02-21T08:58:52;101614.03;;;8.64;88.36
85683;BME280;76253;52.232;5.176;2024-02-21T09:01:19;101618.56;;;8.62;87.90
85683;BME280;76253;52.232;5.176;2024-02-21T09:03:46;101604.88;;;8.57;88.31
85683;BME280;76253;52.232;5.176;2024-02-21T09:06:11;101603.75;;;8.61;88.02
85683;BME280;76253;52.232;5.176;2024-02-21T09:08:38;101608.16;;;8.61;87.98
85683;BME280;76253;52.232;5.176;2024-02-21T09:11:05;101603.22;;;8.69;87.50
85683;BME280;76253;52.232;5.176;2024-02-21T09:13:31;101596.19;;;8.70;87.14
85683;BME280;76253;52.232;5.176;2024-02-21T09:15:56;101603.66;;;8.76;87.32
85683;BME280;76253;52.232;5.176;2024-02-21T09:18:22;101588.75;;;8.76;86.95
85683;BME280;76253;52.232;5.176;2024-02-21T09:20:48;101586.97;;;8.77;87.34
85683;BME280;76253;52.232;5.176;2024-02-21T09:23:13;101573.94;;;8.75;87.19
85683;BME280;76253;52.232;5.176;2024-02-21T09:25:39;101566.91;;;8.76;87.06
85683;BME280;76253;52.232;5.176;2024-02-21T09:28:05;101548.06;;;8.69;87.13
85683;BME280;76253;52.232;5.176;2024-02-21T09:30:34;101575.94;;;8.84;86.93
85683;BME280;76253;52.232;5.176;2024-02-21T09:32:59;101554.28;;;8.81;87.14
85683;BME280;76253;52.232;5.176;2024-02-21T09:35:26;101559.44;;;8.82;86.97
85683;BME280;76253;52.232;5.176;2024-02-21T09:37:52;101542.50;;;8.74;86.34
85683;BME280;76253;52.232;5.176;2024-02-21T09:40:18;101545.66;;;8.79;86.33
85683;BME280;76253;52.232;5.176;2024-02-21T09:42:43;101529.06;;;8.78;86.42
85683;BME280;76253;52.232;5.176;2024-02-21T09:45:20;101529.72;;;8.82;85.89
85683;BME280;76253;52.232;5.176;2024-02-21T09:50:34;101516.97;;;8.88;85.74
85683;BME280;76253;52.232;5.176;2024-02-21T09:53:01;101473.00;;;8.66;85.76
85683;BME280;76253;52.232;5.176;2024-02-21T09:55:29;101479.69;;;8.83;85.67
85683;BME280;76253;52.232;5.176;2024-02-21T09:57:57;101481.25;;;8.98;85.78
85683;BME280;76253;52.232;5.176;2024-02-21T10:00:24;101474.44;;;8.96;85.65
85683;BME280;76253;52.232;5.176;2024-02-21T10:02:49;101468.34;;;8.95;85.48
85683;BME280;76253;52.232;5.176;2024-02-21T10:05:16;101476.75;;;9.00;85.59
85683;BME280;76253;52.232;5.176;2024-02-21T10:07:43;101434.31;;;8.81;84.71
85683;BME280;76253;52.232;5.176;2024-02-21T10:10:08;101462.44;;;9.04;84.46
85683;BME280;76253;52.232;5.176;2024-02-21T10:12:33;101447.63;;;9.03;84.62
85683;BME280;76253;52.232;5.176;2024-02-21T10:15:02;101454.13;;;9.10;84.47
85683;BME280;76253;52.232;5.176;2024-02-21T10:17:28;101461.38;;;9.20;84.06
85683;BME280;76253;52.232;5.176;2024-02-21T10:19:53;101450.53;;;9.24;84.15
85683;BME280;76253;52.232;5.176;2024-02-21T10:22:19;101444.22;;;9.27;84.47
85683;BME280;76253;52.232;5.176;2024-02-21T10:24:46;101438.50;;;9.33;84.08
85683;BME280;76253;52.232;5.176;2024-02-21T10:27:11;101426.72;;;9.38;83.92
85683;BME280;76253;52.232;5.176;2024-02-21T10:29:37;101408.03;;;9.30;83.54
85683;BME280;76253;52.232;5.176;2024-02-21T10:32:08;101416.66;;;9.32;83.70
85683;BME280;76253;52.232;5.176;2024-02-21T10:34:35;101410.09;;;9.38;83.15
85683;BME280;76253;52.232;5.176;2024-02-21T10:37:03;101404.41;;;9.44;83.25
85683;BME280;76253;52.232;5.176;2024-02-21T10:39:33;101400.31;;;9.40;82.59
85683;BME280;76253;52.232;5.176;2024-02-21T10:42:01;101397.75;;;9.51;83.26
85683;BME280;76253;52.232;5.176;2024-02-21T10:44:30;101394.13;;;9.65;83.80
85683;BME280;76253;52.232;5.176;2024-02-21T10:46:56;101391.47;;;9.65;83.37
85683;BME280;76253;52.232;5.176;2024-02-21T10:49:22;101377.03;;;9.70;83.71
85683;BME280;76253;52.232;5.176;2024-02-21T10:51:54;101354.72;;;9.76;84.24
85683;BME280;76253;52.232;5.176;2024-02-21T10:54:39;101350.94;;;9.67;82.12
85683;BME280;76253;52.232;5.176;2024-02-21T10:57:08;101316.41;;;9.61;82.68
85683;BME280;76253;52.232;5.176;2024-02-21T10:59:37;101310.09;;;9.74;82.72
85683;BME280;76253;52.232;5.176;2024-02-21T11:02:02;101304.75;;;9.76;82.08
85683;BME280;76253;52.232;5.176;2024-02-21T11:04:28;101359.13;;;9.75;82.27
85683;BME280;76253;52.232;5.176;2024-02-21T11:06:54;101374.41;;;9.70;81.64
85683;BME280;76253;52.232;5.176;2024-02-21T11:09:28;101390.53;;;9.66;82.04
85683;BME280;76253;52.232;5.176;2024-02-21T11:11:55;101397.19;;;9.59;81.38
85683;BME280;76253;52.232;5.176;2024-02-21T11:14:21;101379.34;;;9.51;81.73
85683;BME280;76253;52.232;5.176;2024-02-21T11:16:46;101383.03;;;9.48;81.85
85683;BME280;76253;52.232;5.176;2024-02-21T11:19:21;101375.28;;;9.47;81.88
85683;BME280;76253;52.232;5.176;2024-02-21T11:21:48;101366.91;;;9.42;81.84
85683;BME280;76253;52.232;5.176;2024-02-21T11:24:13;101372.66;;;9.47;82.24
85683;BME280;76253;52.232;5.176;2024-02-21T11:26:39;101361.50;;;9.43;82.42
85683;BME280;76253;52.232;5.176;2024-02-21T11:29:07;101351.22;;;9.40;81.78
85683;BME280;76253;52.232;5.176;2024-02-21T11:31:42;101329.78;;;9.34;81.62
85683;BME280;76253;52.232;5.176;2024-02-21T11:34:11;101329.78;;;9.34;82.47
85683;BME280;76253;52.232;5.176;2024-02-21T11:36:48;101327.06;;;9.35;82.30
85683;BME280;76253;52.232;5.176;2024-02-21T11:39:33;101299.78;;;9.25;81.95
85683;BME280;76253;52.232;5.176;2024-02-21T11:42:06;101302.81;;;9.32;82.08
85683;BME280;76253;52.232;5.176;2024-02-21T11:44:35;101302.91;;;9.30;81.90
85683;BME280;76253;52.232;5.176;2024-02-21T11:47:06;101312.25;;;9.34;81.39
85683;BME280;76253;52.232;5.176;2024-02-21T11:49:36;101288.69;;;9.33;81.35
85683;BME280;76253;52.232;5.176;2024-02-21T11:52:02;101263.81;;;9.26;81.46
85683;BME280;76253;52.232;5.176;2024-02-21T11:54:32;101251.72;;;9.47;81.51
85683;BME280;76253;52.232;5.176;2024-02-21T11:56:58;101237.88;;;9.56;81.21
85683;BME280;76253;52.232;5.176;2024-02-21T11:59:24;101215.78;;;9.70;81.45
85683;BME280;76253;52.232;5.176;2024-02-21T12:01:50;101206.69;;;9.74;80.91
85683;BME280;76253;52.232;5.176;2024-02-21T12:04:18;101181.97;;;9.76;80.62
85683;BME280;76253;52.232;5.176;2024-02-21T12:06:45;101192.09;;;9.92;79.86
85683;BME280;76253;52.232;5.176;2024-02-21T12:09:15;101184.22;;;10.03;79.92
85683;BME280;76253;52.232;5.176;2024-02-21T12:11:41;101180.50;;;10.17;80.02
85683;BME280;76253;52.232;5.176;2024-02-21T12:14:07;101163.03;;;10.27;79.76
85683;BME280;76253;52.232;5.176;2024-02-21T12:16:34;101171.38;;;10.43;80.72
85683;BME280;76253;52.232;5.176;2024-02-21T12:19:01;101175.31;;;10.49;80.54
85683;BME280;76253;52.232;5.176;2024-02-21T12:21:29;101171.13;;;10.46;80.06
85683;BME280;76253;52.232;5.176;2024-02-21T12:23:55;101151.44;;;10.29;80.33
85683;BME280;76253;52.232;5.176;2024-02-21T12:26:21;101151.66;;;10.26;80.49
85683;BME280;76253;52.232;5.176;2024-02-21T12:28:46;101153.72;;;10.23;80.44
85683;BME280;76253;52.232;5.176;2024-02-21T12:31:12;101119.25;;;10.04;80.28
85683;BME280;76253;52.232;5.176;2024-02-21T12:33:39;101121.16;;;10.13;80.16
85683;BME280;76253;52.232;5.176;2024-02-21T12:36:05;101121.41;;;10.10;80.20
85683;BME280;76253;52.232;5.176;2024-02-21T12:38:30;101119.38;;;10.13;80.88
85683;BME280;76253;52.232;5.176;2024-02-21T12:40:56;101096.16;;;10.07;80.88
85683;BME280;76253;52.232;5.176;2024-02-21T12:43:27;101090.41;;;10.13;81.40
85683;BME280;76253;52.232;5.176;2024-02-21T12:45:53;101086.47;;;10.08;80.52
85683;BME280;76253;52.232;5.176;2024-02-21T12:48:18;101079.19;;;10.11;79.92
85683;BME280;76253;52.232;5.176;2024-02-21T12:50:50;101067.56;;;10.14;79.65
85683;BME280;76253;52.232;5.176;2024-02-21T12:53:17;101059.09;;;10.10;80.04
85683;BME280;76253;52.232;5.176;2024-02-21T12:55:44;101069.25;;;10.26;81.12
85683;BME280;76253;52.232;5.176;2024-02-21T12:58:09;101054.66;;;10.22;80.25